Accueil
METAR-TAF:

METAR-TAF

Aéroports :

Aérodrome de Tamatave

Tamatave, Madagascar

latitude: 18-07S, longitude: 049-24E, altitude: 5 m

Observation

Le bulletin a été fait il y a 25 minutes, à 12:00 UTC
Vent 13 kt de sud, variant entre sud-est et sud/sud-ouest
Température 28°C
Humidité 79%
Pression 1011 hPa
Visibilité 10 km ou plus
Nuages épars à une hauteur de 1700 ft, Cumulus congestus.

METAR: FMMT 061200Z 18013KT 140V200 9999 SCT017TCU 28/24 Q1011 NOSIG

Heure: 15:25 (12:25 UTC)

Prévision

Le bulletin a été fait il y a 1 heure et 25 minutes, à 11:00 UTC
Prévision valable du 06 à 12 UTC au 07 à 12 UTC
Vent 10 kt de sud/sud-ouest
Visibilité 10 km ou plus
Nuages épars à une hauteur de 1700 ft, Cumulus congestus.
Nuages fragmentés à une hauteur de 3300 ft
Probabilité 40% :
Temporairement
du 06 à 18 UTC au 07 à 12 UTC
Visibilité: 4000 m
averses de pluie

TAF: FMMT 061100Z 0612/0712 20010KT 9999 SCT017TCU BKN033 PROB40 TEMPO 0618/0712 4000 SHRA

Observations et prévisions météorologiques de plus de 4000 aéroports (messages METAR et TAF).

Les stations disponibles sont représentées par des disques jaunes et rouges sur la carte.

Passer la souris dessus pour voir le nom de la station.

Cliquer dessus pour voir les observations et prévisions météorologiques.

Pour changer de carte: cliquez sur les boutons verts avec une croix noire pour zoomer, sur le bouton vert avec un tiret pour effectuer un zoom arrière, ou sur les flèches vertes pour les cartes adjacentes.


METAR-TAF: